Time;durP1;ratioP1;P1;durP2;ratioP2;P2;SDS_P1;SDS_P2;PMS_P1;PMS_P2;Temp;Humidity;BMP_temperature;BMP_pressure;BME280_temperature;BME280_humidity;BME280_pressure;Samples;Min_cycle;Max_cycle;Signal;HPM_P1;HPM_P2
2024/03/20 06:01:56;;;;;;;17.87;10.23;;;;;;;;;;5670562;23;20563;-77
2024/03/20 06:04:23;;;;;;;22.77;11.60;;;;;;;;;;4957254;29;20830;-76
2024/03/20 06:06:49;;;;;;;22.93;11.40;;;;;;;;;;4957684;29;20459;-77
2024/03/20 06:09:18;;;;;;;32.60;12.17;;;;;;;;;;4957054;29;20427;-78
2024/03/20 06:11:44;;;;;;;17.70;10.43;;;;;;;;;;4957926;28;20456;-77
2024/03/20 06:14:10;;;;;;;15.03;9.73;;;;;;;;;;4959434;29;20515;-77
2024/03/20 06:16:36;;;;;;;21.27;9.30;;;;;;;;;;4956015;29;20417;-75
2024/03/20 06:19:03;;;;;;;19.83;9.40;;;;;;;;;;4957253;28;20780;-72
2024/03/20 06:21:29;;;;;;;16.63;8.97;;;;;;;;;;4957147;28;20452;-73
2024/03/20 06:23:56;;;;;;;20.20;10.27;;;;;;;;;;4956948;28;20409;-77
2024/03/20 06:26:22;;;;;;;26.50;8.93;;;;;;;;;;4956645;28;20404;-76
2024/03/20 06:28:48;;;;;;;22.67;8.90;;;;;;;;;;4949706;29;20489;-79
2024/03/20 06:31:15;;;;;;;23.57;8.47;;;;;;;;;;4949456;29;20475;-79
2024/03/20 06:33:43;;;;;;;39.17;10.67;;;;;;;;;;4952020;29;20418;-79
2024/03/20 06:36:09;;;;;;;17.40;8.60;;;;;;;;;;4951015;29;20417;-79
2024/03/20 06:38:35;;;;;;;16.07;9.23;;;;;;;;;;4956871;28;20432;-79
2024/03/20 06:41:03;;;;;;;18.63;8.60;;;;;;;;;;4952759;29;20505;-80
2024/03/20 06:43:34;;;;;;;17.67;10.03;;;;;;;;;;4951455;29;20410;-79
2024/03/20 06:46:00;;;;;;;12.60;8.00;;;;;;;;;;4952819;29;20437;-78
2024/03/20 06:48:28;;;;;;;14.30;8.53;;;;;;;;;;4953692;29;20410;-78
2024/03/20 06:50:54;;;;;;;15.00;8.20;;;;;;;;;;4953527;29;20460;-79
2024/03/20 06:53:20;;;;;;;21.87;9.20;;;;;;;;;;4957048;28;20437;-79
2024/03/20 06:55:50;;;;;;;20.07;9.17;;;;;;;;;;4953398;29;20532;-79
2024/03/20 06:58:16;;;;;;;17.33;8.10;;;;;;;;;;4953714;29;20454;-79
2024/03/20 07:00:46;;;;;;;20.80;8.70;;;;;;;;;;4955165;29;20430;-79
2024/03/20 07:03:12;;;;;;;17.90;8.30;;;;;;;;;;4951210;29;20429;-79
2024/03/20 07:05:38;;;;;;;18.00;8.57;;;;;;;;;;4960029;28;20429;-79
2024/03/20 07:08:04;;;;;;;17.03;8.63;;;;;;;;;;4960193;28;20875;-79
2024/03/20 07:10:30;;;;;;;14.10;8.00;;;;;;;;;;4959952;28;20461;-79
2024/03/20 07:12:56;;;;;;;17.40;7.67;;;;;;;;;;4955611;29;20417;-79
2024/03/20 07:15:22;;;;;;;14.90;8.97;;;;;;;;;;4953738;29;20432;-79
2024/03/20 07:17:48;;;;;;;15.00;9.17;;;;;;;;;;4953318;29;20894;-79
2024/03/20 07:20:14;;;;;;;19.87;8.87;;;;;;;;;;4952387;29;20425;-79
2024/03/20 07:22:40;;;;;;;17.13;9.27;;;;;;;;;;4951708;29;20426;-79
2024/03/20 07:25:07;;;;;;;17.70;10.30;;;;;;;;;;4952966;29;20422;-79
2024/03/20 07:27:33;;;;;;;18.73;9.70;;;;;;;;;;4955852;29;20417;-79
2024/03/20 07:29:59;;;;;;;17.50;9.50;;;;;;;;;;4957547;29;20460;-79
2024/03/20 07:32:27;;;;;;;27.33;9.40;;;;;;;;;;4956216;29;20453;-79
2024/03/20 07:34:52;;;;;;;18.33;9.47;;;;;;;;;;4956789;29;20426;-79
2024/03/20 07:37:18;;;;;;;13.80;8.20;;;;;;;;;;4954937;29;20444;-79
2024/03/20 07:39:44;;;;;;;15.00;8.63;;;;;;;;;;4955911;29;20417;-79
2024/03/20 07:42:10;;;;;;;16.93;9.17;;;;;;;;;;4955583;29;20444;-79
2024/03/20 07:44:37;;;;;;;14.80;9.20;;;;;;;;;;4954753;29;20430;-79
2024/03/20 07:47:03;;;;;;;21.73;9.97;;;;;;;;;;4954997;29;20418;-79
2024/03/20 07:49:29;;;;;;;15.90;8.43;;;;;;;;;;4953954;29;20445;-79
2024/03/20 07:51:56;;;;;;;14.00;8.03;;;;;;;;;;4952452;29;20465;-79
2024/03/20 07:54:25;;;;;;;14.87;8.13;;;;;;;;;;4953814;29;20792;-80
2024/03/20 07:56:52;;;;;;;18.70;8.73;;;;;;;;;;4953149;29;20663;-79
2024/03/20 07:59:18;;;;;;;17.30;8.10;;;;;;;;;;4959158;28;20430;-80
2024/03/20 08:01:44;;;;;;;19.23;8.37;;;;;;;;;;4955088;29;20438;-80
2024/03/20 08:04:10;;;;;;;23.43;8.97;;;;;;;;;;4953493;29;20497;-80
2024/03/20 08:06:36;;;;;;;19.33;8.53;;;;;;;;;;4953925;29;20416;-80
2024/03/20 08:09:04;;;;;;;10.30;7.90;;;;;;;;;;4954003;29;20422;-80
2024/03/20 08:11:30;;;;;;;13.63;8.10;;;;;;;;;;4954247;29;20473;-80
2024/03/20 08:13:56;;;;;;;21.83;8.20;;;;;;;;;;4952787;29;20418;-80
2024/03/20 08:16:22;;;;;;;15.10;9.30;;;;;;;;;;4958602;28;20414;-79
2024/03/20 08:18:48;;;;;;;14.63;8.77;;;;;;;;;;4955918;28;20445;-80
2024/03/20 08:21:15;;;;;;;16.50;8.17;;;;;;;;;;4952926;29;20482;-80
2024/03/20 08:23:41;;;;;;;10.37;7.20;;;;;;;;;;4954063;29;20541;-80
2024/03/20 08:26:08;;;;;;;15.07;8.10;;;;;;;;;;4937991;29;20417;-78
2024/03/20 08:28:34;;;;;;;15.03;6.97;;;;;;;;;;4947499;29;20457;-79
2024/03/20 08:31:00;;;;;;;14.87;7.00;;;;;;;;;;4953394;29;20481;-79
2024/03/20 08:33:26;;;;;;;16.50;8.00;;;;;;;;;;4950661;29;20421;-80
2024/03/20 08:35:57;;;;;;;13.93;8.10;;;;;;;;;;4953109;29;20442;-80
2024/03/20 08:38:24;;;;;;;13.57;7.67;;;;;;;;;;4954552;29;20766;-80
2024/03/20 08:40:50;;;;;;;14.63;8.00;;;;;;;;;;4953353;29;20448;-80
2024/03/20 08:43:16;;;;;;;17.10;7.70;;;;;;;;;;4952542;29;20453;-80
2024/03/20 08:45:42;;;;;;;13.90;7.00;;;;;;;;;;4948858;29;20440;-79
2024/03/20 08:48:08;;;;;;;13.03;6.83;;;;;;;;;;4942547;29;20902;-79
2024/03/20 08:50:39;;;;;;;11.77;7.50;;;;;;;;;;4938240;29;21012;-79
2024/03/20 08:53:07;;;;;;;11.47;7.10;;;;;;;;;;4952857;29;20429;-80
2024/03/20 08:55:33;;;;;;;13.27;8.30;;;;;;;;;;4951972;29;20413;-80
2024/03/20 08:57:58;;;;;;;22.03;7.00;;;;;;;;;;4952964;29;20468;-81
2024/03/20 09:00:25;;;;;;;10.90;7.57;;;;;;;;;;4940251;29;20432;-79
2024/03/20 09:02:51;;;;;;;13.13;8.10;;;;;;;;;;4936116;29;20520;-79
2024/03/20 09:05:18;;;;;;;12.93;7.77;;;;;;;;;;4942740;29;20422;-78
2024/03/20 09:07:44;;;;;;;14.27;7.07;;;;;;;;;;4941568;29;20418;-78
2024/03/20 09:10:10;;;;;;;9.13;6.40;;;;;;;;;;4936683;29;20430;-78
2024/03/20 09:12:36;;;;;;;14.60;7.87;;;;;;;;;;4936047;29;20976;-77
2024/03/20 09:15:05;;;;;;;15.73;7.13;;;;;;;;;;4938425;29;20949;-78
2024/03/20 09:17:31;;;;;;;8.97;5.50;;;;;;;;;;4946407;29;20413;-79
2024/03/20 09:19:56;;;;;;;13.50;6.50;;;;;;;;;;4946384;29;20500;-78
2024/03/20 09:22:22;;;;;;;13.70;5.90;;;;;;;;;;4947643;29;20497;-78
2024/03/20 09:24:48;;;;;;;11.53;5.60;;;;;;;;;;4950117;29;20418;-79
2024/03/20 09:27:14;;;;;;;9.13;6.20;;;;;;;;;;4946904;29;20989;-79
2024/03/20 09:29:40;;;;;;;6.17;4.83;;;;;;;;;;4948056;29;20493;-79
2024/03/20 09:32:07;;;;;;;5.07;3.30;;;;;;;;;;4950348;29;20473;-79
2024/03/20 09:34:35;;;;;;;8.70;4.53;;;;;;;;;;4949235;29;20430;-79
2024/03/20 09:37:01;;;;;;;10.30;5.30;;;;;;;;;;4947549;29;20422;-79
2024/03/20 09:39:27;;;;;;;14.70;4.93;;;;;;;;;;4948833;29;20413;-78
2024/03/20 09:41:53;;;;;;;7.30;4.67;;;;;;;;;;4948374;29;20437;-79
2024/03/20 09:44:19;;;;;;;8.83;4.30;;;;;;;;;;4948563;29;20424;-79
2024/03/20 09:46:45;;;;;;;9.93;3.70;;;;;;;;;;4947358;29;20426;-79
2024/03/20 09:49:11;;;;;;;6.07;4.27;;;;;;;;;;4947606;29;20434;-78
2024/03/20 09:51:37;;;;;;;6.37;4.07;;;;;;;;;;4947605;29;20993;-78
2024/03/20 09:54:05;;;;;;;8.33;4.37;;;;;;;;;;4947663;29;20418;-79
2024/03/20 09:56:31;;;;;;;5.47;4.03;;;;;;;;;;4949160;29;20930;-79
2024/03/20 09:58:57;;;;;;;4.80;3.43;;;;;;;;;;4949880;29;20405;-78
2024/03/20 10:01:23;;;;;;;8.20;3.40;;;;;;;;;;4948831;29;20453;-80
2024/03/20 10:03:58;;;;;;;5.83;3.73;;;;;;;;;;4950118;29;20477;-80
2024/03/20 10:06:25;;;;;;;7.63;3.77;;;;;;;;;;4947596;29;20968;-79
2024/03/20 10:08:51;;;;;;;5.83;3.60;;;;;;;;;;4947660;29;20485;-79
2024/03/20 10:11:22;;;;;;;9.93;3.33;;;;;;;;;;4949724;29;20493;-79
2024/03/20 10:13:48;;;;;;;6.80;2.90;;;;;;;;;;4946091;29;20398;-79
2024/03/20 10:16:15;;;;;;;8.77;3.17;;;;;;;;;;4950415;29;20410;-78
2024/03/20 10:18:42;;;;;;;5.63;2.97;;;;;;;;;;4950399;29;20847;-80
2024/03/20 10:21:09;;;;;;;5.27;2.77;;;;;;;;;;4944175;29;20438;-79
2024/03/20 10:23:47;;;;;;;3.33;2.60;;;;;;;;;;4943178;29;20441;-78
2024/03/20 10:26:14;;;;;;;4.00;2.60;;;;;;;;;;4941411;29;20413;-78
2024/03/20 10:28:40;;;;;;;3.60;2.10;;;;;;;;;;4940583;29;20438;-78
2024/03/20 10:31:07;;;;;;;4.00;2.80;;;;;;;;;;4939582;29;20468;-78
2024/03/20 10:33:34;;;;;;;5.23;3.00;;;;;;;;;;4937547;29;20842;-79
2024/03/20 10:36:00;;;;;;;4.00;2.77;;;;;;;;;;4938558;29;20417;-78
2024/03/20 10:38:29;;;;;;;8.80;2.70;;;;;;;;;;4942810;29;20434;-79
2024/03/20 10:40:56;;;;;;;6.63;2.13;;;;;;;;;;4948907;28;20522;-80
2024/03/20 10:43:23;;;;;;;5.87;2.67;;;;;;;;;;4950175;29;20413;-79
2024/03/20 10:45:49;;;;;;;3.50;2.20;;;;;;;;;;4944332;29;20424;-79
2024/03/20 10:48:17;;;;;;;5.43;2.57;;;;;;;;;;4940579;29;20656;-79
2024/03/20 10:50:46;;;;;;;5.20;2.60;;;;;;;;;;4939187;29;20504;-79
2024/03/20 10:53:12;;;;;;;3.33;2.60;;;;;;;;;;4942658;29;20425;-79
2024/03/20 10:55:39;;;;;;;5.20;2.37;;;;;;;;;;4955076;29;20432;-79
2024/03/20 10:58:07;;;;;;;6.63;2.60;;;;;;;;;;4955941;29;20413;-80
2024/03/20 11:00:34;;;;;;;6.53;2.53;;;;;;;;;;4954700;29;20426;-80
2024/03/20 11:03:20;;;;;;;2.40;2.10;;;;;;;;;;4957611;29;20453;-79
2024/03/20 11:05:46;;;;;;;4.30;2.10;;;;;;;;;;4957757;29;20456;-79
2024/03/20 11:08:12;;;;;;;3.73;2.50;;;;;;;;;;4959478;29;20501;-79
2024/03/20 11:10:47;;;;;;;3.10;2.37;;;;;;;;;;4955854;29;20541;-79
2024/03/20 11:13:21;;;;;;;4.83;2.23;;;;;;;;;;4955788;29;20509;-79
2024/03/20 11:15:48;;;;;;;2.97;1.93;;;;;;;;;;4954896;29;20424;-80
2024/03/20 11:18:20;;;;;;;2.57;2.20;;;;;;;;;;4958661;29;20422;-79
2024/03/20 11:20:47;;;;;;;2.87;2.33;;;;;;;;;;4956883;29;20448;-79
2024/03/20 11:23:23;;;;;;;3.30;2.13;;;;;;;;;;4958678;29;20417;-79
2024/03/20 11:25:49;;;;;;;5.63;2.67;;;;;;;;;;4958325;29;20421;-79
2024/03/20 11:28:15;;;;;;;7.23;4.00;;;;;;;;;;4956001;29;20422;-79
2024/03/20 11:30:41;;;;;;;6.33;2.40;;;;;;;;;;4956039;29;20557;-79
2024/03/20 11:33:11;;;;;;;4.30;3.17;;;;;;;;;;4954942;29;20834;-79
2024/03/20 11:35:37;;;;;;;3.63;2.33;;;;;;;;;;4952893;29;20422;-79
2024/03/20 11:38:04;;;;;;;5.13;1.97;;;;;;;;;;4952888;29;20414;-79
2024/03/20 11:40:30;;;;;;;6.70;2.60;;;;;;;;;;4956553;29;20446;-79
2024/03/20 11:42:56;;;;;;;4.77;2.50;;;;;;;;;;4954064;29;21406;-80
2024/03/20 11:45:22;;;;;;;5.27;2.37;;;;;;;;;;4954530;29;20477;-80
2024/03/20 11:47:48;;;;;;;3.77;2.30;;;;;;;;;;4954064;29;20418;-80
2024/03/20 11:50:15;;;;;;;2.70;1.63;;;;;;;;;;4953919;29;20421;-80
2024/03/20 11:52:41;;;;;;;7.23;2.60;;;;;;;;;;4954773;29;20418;-80
2024/03/20 11:55:11;;;;;;;5.73;2.47;;;;;;;;;;4955036;29;20955;-80
2024/03/20 11:57:40;;;;;;;3.20;2.20;;;;;;;;;;4956118;29;20402;-81
2024/03/20 12:00:09;;;;;;;4.07;2.50;;;;;;;;;;4955584;29;20410;-80
2024/03/20 12:02:37;;;;;;;10.60;2.40;;;;;;;;;;4953632;29;20441;-80
2024/03/20 12:05:04;;;;;;;2.50;2.03;;;;;;;;;;4954241;29;20426;-79
2024/03/20 12:07:36;;;;;;;3.37;2.00;;;;;;;;;;4954502;29;20421;-80
2024/03/20 12:10:02;;;;;;;5.53;2.00;;;;;;;;;;4953451;29;20527;-80
2024/03/20 12:12:29;;;;;;;2.90;2.20;;;;;;;;;;4953509;29;20465;-80
2024/03/20 12:14:56;;;;;;;3.67;2.20;;;;;;;;;;4967700;23;20494;-77
2024/03/20 12:17:22;;;;;;;3.17;2.30;;;;;;;;;;4938026;29;20918;-77
2024/03/20 12:19:49;;;;;;;4.90;1.77;;;;;;;;;;4938061;29;20406;-77
2024/03/20 12:22:16;;;;;;;3.30;1.77;;;;;;;;;;4938465;29;20416;-78
2024/03/20 12:24:42;;;;;;;3.73;1.90;;;;;;;;;;4938355;29;20434;-78
2024/03/20 12:27:12;;;;;;;7.80;2.47;;;;;;;;;;4938245;29;20410;-77
2024/03/20 12:29:38;;;;;;;2.77;1.80;;;;;;;;;;4938404;29;20417;-77
2024/03/20 12:32:04;;;;;;;1.93;1.47;;;;;;;;;;4940907;29;20468;-78
2024/03/20 12:34:30;;;;;;;2.67;1.97;;;;;;;;;;4940234;29;20500;-78
2024/03/20 12:36:56;;;;;;;4.97;1.60;;;;;;;;;;4940619;29;20418;-77
2024/03/20 12:39:22;;;;;;;2.90;2.23;;;;;;;;;;4939831;29;20428;-78
2024/03/20 12:41:48;;;;;;;4.13;2.17;;;;;;;;;;4943449;29;20509;-77
2024/03/20 12:44:14;;;;;;;4.00;2.03;;;;;;;;;;4942101;29;20468;-77
2024/03/20 12:46:42;;;;;;;3.33;1.90;;;;;;;;;;4941625;29;20426;-78
2024/03/20 12:49:11;;;;;;;4.10;1.90;;;;;;;;;;4947873;29;20418;-76
2024/03/20 12:51:38;;;;;;;3.53;1.63;;;;;;;;;;4951064;29;20481;-77
2024/03/20 12:54:05;;;;;;;2.60;1.80;;;;;;;;;;4941727;29;20841;-77
2024/03/20 12:56:31;;;;;;;3.17;1.97;;;;;;;;;;4938097;29;20425;-78
2024/03/20 12:58:57;;;;;;;3.30;2.40;;;;;;;;;;4940354;29;20424;-78
2024/03/20 13:01:23;;;;;;;3.90;1.70;;;;;;;;;;4941240;29;20449;-78
2024/03/20 13:03:49;;;;;;;3.67;1.80;;;;;;;;;;4939842;29;20414;-78
2024/03/20 13:06:15;;;;;;;2.70;1.80;;;;;;;;;;4939864;29;20429;-78
2024/03/20 13:08:42;;;;;;;2.83;1.80;;;;;;;;;;4940138;29;20428;-78
2024/03/20 13:11:11;;;;;;;10.60;2.10;;;;;;;;;;4941110;29;20453;-78
2024/03/20 13:13:37;;;;;;;6.87;1.93;;;;;;;;;;4941218;29;20473;-81
2024/03/20 13:16:06;;;;;;;3.50;1.90;;;;;;;;;;4940127;29;20449;-78
2024/03/20 13:18:36;;;;;;;2.57;1.80;;;;;;;;;;4941032;29;20506;-78
2024/03/20 13:21:11;;;;;;;4.93;2.30;;;;;;;;;;4941568;29;20452;-78
2024/03/20 13:23:37;;;;;;;3.70;2.43;;;;;;;;;;4936958;29;20421;-77
2024/03/20 13:26:03;;;;;;;4.10;1.60;;;;;;;;;;4935320;29;20528;-77
2024/03/20 13:28:32;;;;;;;5.60;2.03;;;;;;;;;;4935041;29;20425;-77
2024/03/20 13:31:00;;;;;;;2.90;1.63;;;;;;;;;;4936418;29;20789;-77
2024/03/20 13:33:26;;;;;;;3.20;1.80;;;;;;;;;;4937505;29;20417;-78
2024/03/20 13:35:52;;;;;;;3.10;1.97;;;;;;;;;;4936065;29;20937;-77
2024/03/20 13:38:19;;;;;;;2.33;1.80;;;;;;;;;;4936244;29;20447;-76
2024/03/20 13:41:01;;;;;;;2.83;1.90;;;;;;;;;;4938209;29;20414;-77
2024/03/20 13:43:50;;;;;;;2.00;1.63;;;;;;;;;;4940661;29;20449;-77
2024/03/20 13:46:17;;;;;;;5.17;2.10;;;;;;;;;;4940462;29;20437;-76
2024/03/20 13:48:43;;;;;;;2.30;1.50;;;;;;;;;;4949840;29;20428;-77
2024/03/20 13:51:19;;;;;;;3.70;2.17;;;;;;;;;;4946003;29;20512;-76
2024/03/20 13:53:45;;;;;;;4.63;2.10;;;;;;;;;;4950892;29;20429;-76
2024/03/20 13:56:14;;;;;;;4.23;2.00;;;;;;;;;;4955538;29;20437;-77
2024/03/20 13:58:41;;;;;;;5.47;2.00;;;;;;;;;;4954594;29;20414;-77
2024/03/20 14:01:12;;;;;;;5.40;2.20;;;;;;;;;;4954733;29;20901;-76
2024/03/20 14:03:38;;;;;;;3.60;1.60;;;;;;;;;;4955370;29;20405;-77
2024/03/20 14:06:04;;;;;;;4.77;1.90;;;;;;;;;;4945997;29;20518;-77
2024/03/20 14:08:30;;;;;;;2.87;1.80;;;;;;;;;;4940828;29;20783;-77
2024/03/20 14:10:57;;;;;;;2.23;1.73;;;;;;;;;;4941091;29;20473;-77
2024/03/20 14:13:23;;;;;;;2.43;1.90;;;;;;;;;;4941453;29;20406;-77
2024/03/20 14:15:49;;;;;;;2.20;1.80;;;;;;;;;;4941012;29;20822;-77
2024/03/20 14:18:15;;;;;;;2.97;1.83;;;;;;;;;;4941676;29;20832;-77
2024/03/20 14:20:40;;;;;;;4.57;1.80;;;;;;;;;;4941317;29;20818;-77
2024/03/20 14:23:06;;;;;;;5.13;2.10;;;;;;;;;;4941888;29;20759;-77
2024/03/20 14:25:34;;;;;;;5.80;2.60;;;;;;;;;;4945615;29;20956;-77
2024/03/20 14:28:02;;;;;;;2.43;1.93;;;;;;;;;;4945052;29;20421;-77
2024/03/20 14:30:29;;;;;;;4.33;2.13;;;;;;;;;;4944490;29;20416;-78
2024/03/20 14:32:55;;;;;;;2.87;1.80;;;;;;;;;;4945253;29;20424;-78
2024/03/20 14:35:21;;;;;;;2.70;1.50;;;;;;;;;;4954256;29;20433;-77
2024/03/20 14:37:47;;;;;;;4.57;2.03;;;;;;;;;;4947471;29;20421;-78
2024/03/20 14:40:15;;;;;;;5.43;2.20;;;;;;;;;;4951163;29;20743;-77
2024/03/20 14:42:41;;;;;;;4.50;1.93;;;;;;;;;;4950183;29;20436;-78
2024/03/20 14:45:08;;;;;;;5.97;2.27;;;;;;;;;;4949041;29;20501;-76
2024/03/20 14:47:34;;;;;;;4.50;1.80;;;;;;;;;;4950505;29;20488;-77
2024/03/20 14:50:00;;;;;;;6.40;2.10;;;;;;;;;;4946245;29;20425;-77
2024/03/20 14:52:26;;;;;;;3.73;2.00;;;;;;;;;;4955304;29;20461;-77
2024/03/20 14:54:52;;;;;;;2.60;2.10;;;;;;;;;;4955470;29;20430;-76
2024/03/20 14:57:18;;;;;;;4.13;1.73;;;;;;;;;;4952198;29;20465;-76
2024/03/20 14:59:45;;;;;;;2.53;1.80;;;;;;;;;;4944666;29;20413;-77
2024/03/20 15:02:18;;;;;;;10.33;1.93;;;;;;;;;;4945151;29;20417;-77
2024/03/20 15:04:44;;;;;;;2.73;1.60;;;;;;;;;;4946868;29;20772;-77
2024/03/20 15:07:14;;;;;;;2.70;1.67;;;;;;;;;;4944480;29;20421;-77
2024/03/20 15:09:41;;;;;;;6.73;2.10;;;;;;;;;;4940694;29;20421;-77
2024/03/20 15:12:11;;;;;;;3.60;1.93;;;;;;;;;;4940811;29;20613;-77
2024/03/20 15:14:37;;;;;;;4.33;2.03;;;;;;;;;;4946322;29;20457;-78
2024/03/20 15:17:03;;;;;;;4.60;1.80;;;;;;;;;;4946854;29;20428;-78
2024/03/20 15:19:30;;;;;;;7.77;2.03;;;;;;;;;;4945884;29;20417;-77
2024/03/20 15:21:56;;;;;;;2.53;1.90;;;;;;;;;;4945446;29;20461;-77
2024/03/20 15:24:22;;;;;;;2.70;1.80;;;;;;;;;;4942861;29;20437;-76
2024/03/20 15:26:49;;;;;;;2.63;1.90;;;;;;;;;;4941629;29;20453;-76
2024/03/20 15:29:15;;;;;;;2.23;1.53;;;;;;;;;;4945579;29;20429;-77
2024/03/20 15:31:42;;;;;;;4.27;1.90;;;;;;;;;;4941801;29;20461;-77
2024/03/20 15:34:08;;;;;;;5.83;1.90;;;;;;;;;;4939521;29;20476;-77
2024/03/20 15:36:35;;;;;;;3.47;1.90;;;;;;;;;;4939647;29;20417;-77
2024/03/20 15:39:05;;;;;;;7.90;2.07;;;;;;;;;;4943063;29;20461;-78
2024/03/20 15:41:31;;;;;;;2.77;1.73;;;;;;;;;;4944805;29;20429;-77
2024/03/20 15:43:57;;;;;;;4.47;1.80;;;;;;;;;;4946465;29;20417;-77
2024/03/20 15:46:23;;;;;;;5.20;2.40;;;;;;;;;;4956302;28;20511;-75
2024/03/20 15:48:54;;;;;;;3.23;2.00;;;;;;;;;;4960822;29;20398;-75
2024/03/20 15:51:24;;;;;;;3.87;2.20;;;;;;;;;;4957088;29;20489;-77
2024/03/20 15:53:50;;;;;;;2.80;1.97;;;;;;;;;;4959662;29;20422;-76
2024/03/20 15:56:22;;;;;;;3.70;2.00;;;;;;;;;;4956235;29;20438;-76
2024/03/20 15:58:50;;;;;;;7.10;2.10;;;;;;;;;;4950893;29;20433;-77
2024/03/20 16:01:16;;;;;;;5.27;2.10;;;;;;;;;;4938860;29;20418;-77
2024/03/20 16:03:43;;;;;;;4.53;1.80;;;;;;;;;;4944079;29;20448;-78
2024/03/20 16:06:09;;;;;;;3.30;1.90;;;;;;;;;;4944674;29;20445;-76
2024/03/20 16:08:36;;;;;;;4.80;2.10;;;;;;;;;;4940070;29;20913;-77
2024/03/20 16:11:02;;;;;;;3.27;2.00;;;;;;;;;;4939006;29;20488;-77
2024/03/20 16:13:28;;;;;;;4.60;1.90;;;;;;;;;;4947751;29;20409;-77
2024/03/20 16:15:55;;;;;;;5.30;2.10;;;;;;;;;;4940523;29;20449;-77
2024/03/20 16:18:21;;;;;;;4.23;1.90;;;;;;;;;;4939888;29;20494;-76
2024/03/20 16:20:47;;;;;;;2.30;1.73;;;;;;;;;;4938894;29;20414;-77
2024/03/20 16:23:13;;;;;;;7.43;2.40;;;;;;;;;;4939279;29;20476;-77
2024/03/20 16:25:39;;;;;;;2.87;1.90;;;;;;;;;;4943194;29;20448;-78
2024/03/20 16:28:06;;;;;;;3.33;2.13;;;;;;;;;;4943255;29;20417;-77
2024/03/20 16:30:35;;;;;;;2.97;1.77;;;;;;;;;;4942917;29;20452;-78
2024/03/20 16:33:01;;;;;;;4.90;2.27;;;;;;;;;;4937306;29;20929;-77
2024/03/20 16:35:27;;;;;;;3.43;1.87;;;;;;;;;;4936649;29;21024;-77
2024/03/20 16:37:53;;;;;;;2.23;1.80;;;;;;;;;;4939670;29;20429;-77
2024/03/20 16:40:25;;;;;;;3.00;1.80;;;;;;;;;;4942463;29;20760;-77
2024/03/20 16:42:52;;;;;;;2.87;1.80;;;;;;;;;;4943006;29;20936;-77
2024/03/20 16:45:18;;;;;;;3.07;2.10;;;;;;;;;;4943137;29;20437;-77
2024/03/20 16:47:44;;;;;;;5.67;2.80;;;;;;;;;;4943099;29;20424;-77
2024/03/20 16:50:12;;;;;;;4.50;2.30;;;;;;;;;;4939148;29;20477;-77
2024/03/20 16:52:40;;;;;;;3.63;2.33;;;;;;;;;;4938289;29;20926;-76
2024/03/20 16:55:07;;;;;;;6.40;2.23;;;;;;;;;;4940625;29;21034;-78
2024/03/20 16:57:33;;;;;;;3.00;2.37;;;;;;;;;;4944942;29;20500;-78
2024/03/20 16:59:58;;;;;;;4.90;2.10;;;;;;;;;;4947475;29;20716;-78
2024/03/20 17:02:25;;;;;;;2.63;1.97;;;;;;;;;;4942120;29;20430;-78
2024/03/20 17:04:51;;;;;;;3.60;2.50;;;;;;;;;;4942692;29;20437;-77
2024/03/20 17:07:18;;;;;;;3.73;2.53;;;;;;;;;;4941565;29;20474;-78
2024/03/20 17:09:44;;;;;;;4.23;2.17;;;;;;;;;;4941723;29;20789;-78
2024/03/20 17:12:11;;;;;;;2.67;2.10;;;;;;;;;;4942514;29;20464;-78
2024/03/20 17:14:43;;;;;;;5.77;2.27;;;;;;;;;;4943650;29;20976;-78
2024/03/20 17:17:10;;;;;;;3.23;1.97;;;;;;;;;;4941903;29;20847;-78
2024/03/20 17:19:36;;;;;;;3.10;2.07;;;;;;;;;;4941609;29;20476;-77
2024/03/20 17:22:02;;;;;;;3.83;2.70;;;;;;;;;;4945653;29;20786;-78
2024/03/20 17:24:29;;;;;;;8.40;2.63;;;;;;;;;;4941502;29;20442;-78
2024/03/20 17:26:55;;;;;;;6.13;2.30;;;;;;;;;;4937164;29;20421;-77
2024/03/20 17:29:21;;;;;;;5.60;2.83;;;;;;;;;;4943649;29;20424;-77
2024/03/20 17:31:47;;;;;;;5.00;2.97;;;;;;;;;;4944980;29;20556;-77
2024/03/20 17:34:21;;;;;;;5.33;2.10;;;;;;;;;;4939932;29;20425;-77
2024/03/20 17:36:51;;;;;;;4.80;2.30;;;;;;;;;;4941058;29;20402;-77
2024/03/20 17:39:17;;;;;;;6.43;2.70;;;;;;;;;;4944178;29;20445;-77
2024/03/20 17:41:44;;;;;;;4.30;2.67;;;;;;;;;;4944079;29;20425;-77
2024/03/20 17:44:10;;;;;;;5.17;3.07;;;;;;;;;;4942072;29;20490;-77
2024/03/20 17:46:36;;;;;;;8.73;4.10;;;;;;;;;;4942529;29;20460;-77
2024/03/20 17:49:02;;;;;;;4.30;2.60;;;;;;;;;;4943583;29;20429;-77
2024/03/20 17:51:29;;;;;;;3.97;2.93;;;;;;;;;;4943599;29;20485;-77
2024/03/20 17:53:55;;;;;;;6.07;3.57;;;;;;;;;;4944113;29;20944;-77
2024/03/20 17:56:21;;;;;;;9.73;5.53;;;;;;;;;;4943509;29;20465;-77
2024/03/20 17:58:47;;;;;;;7.97;4.07;;;;;;;;;;4946649;29;20927;-78
2024/03/20 18:01:18;;;;;;;5.57;4.27;;;;;;;;;;4947583;29;20512;-77
2024/03/20 18:03:44;;;;;;;7.37;3.73;;;;;;;;;;4946364;29;20413;-77
2024/03/20 18:06:10;;;;;;;9.97;4.03;;;;;;;;;;4946685;29;20433;-77
2024/03/20 18:08:36;;;;;;;12.30;4.40;;;;;;;;;;4946326;29;20437;-77
2024/03/20 18:11:02;;;;;;;7.80;5.20;;;;;;;;;;4947559;29;20461;-77
2024/03/20 18:13:28;;;;;;;6.23;4.07;;;;;;;;;;4953726;29;20438;-77
2024/03/20 18:15:54;;;;;;;10.47;4.77;;;;;;;;;;4944467;29;20475;-77
2024/03/20 18:18:25;;;;;;;6.63;4.20;;;;;;;;;;4937282;29;20909;-77
2024/03/20 18:20:51;;;;;;;10.47;4.07;;;;;;;;;;4938433;29;20417;-75
2024/03/20 18:23:16;;;;;;;6.10;3.60;;;;;;;;;;4937464;29;20417;-76
2024/03/20 18:25:45;;;;;;;6.17;4.07;;;;;;;;;;4938278;29;20469;-76
2024/03/20 18:28:11;;;;;;;7.50;3.30;;;;;;;;;;4938056;29;20509;-77
2024/03/20 18:30:39;;;;;;;7.90;4.00;;;;;;;;;;4938346;29;20473;-77
2024/03/20 18:33:07;;;;;;;8.50;3.70;;;;;;;;;;4938125;29;20405;-78
2024/03/20 18:35:33;;;;;;;10.90;4.77;;;;;;;;;;4937956;29;20468;-77
2024/03/20 18:38:00;;;;;;;15.40;4.30;;;;;;;;;;4937995;29;20429;-77
2024/03/20 18:40:26;;;;;;;9.60;4.83;;;;;;;;;;4938241;29;20498;-77
2024/03/20 18:42:52;;;;;;;9.83;4.70;;;;;;;;;;4938148;29;20451;-77
2024/03/20 18:45:19;;;;;;;6.43;3.97;;;;;;;;;;4938223;29;20941;-77
2024/03/20 18:47:45;;;;;;;6.37;3.77;;;;;;;;;;4936706;29;20418;-77
2024/03/20 18:50:11;;;;;;;5.60;4.30;;;;;;;;;;4938229;29;20425;-78
2024/03/20 18:52:37;;;;;;;6.73;3.93;;;;;;;;;;4938150;29;20988;-77
2024/03/20 18:55:04;;;;;;;8.30;4.10;;;;;;;;;;4937273;29;20449;-74
2024/03/20 18:57:32;;;;;;;5.90;3.70;;;;;;;;;;4936150;29;20409;-76
2024/03/20 18:59:59;;;;;;;10.63;4.70;;;;;;;;;;4924934;29;20593;-76
2024/03/20 19:02:28;;;;;;;10.33;5.63;;;;;;;;;;4936661;29;20957;-75
2024/03/20 19:04:54;;;;;;;19.80;6.73;;;;;;;;;;4936469;29;20446;-76
2024/03/20 19:07:20;;;;;;;11.40;5.53;;;;;;;;;;4936979;29;20414;-76
2024/03/20 19:09:46;;;;;;;9.60;5.20;;;;;;;;;;4936295;29;20418;-74
2024/03/20 19:12:13;;;;;;;15.33;7.33;;;;;;;;;;4931339;29;20469;-75
2024/03/20 19:14:40;;;;;;;9.50;5.00;;;;;;;;;;4935845;29;20825;-78
2024/03/20 19:17:06;;;;;;;8.30;4.70;;;;;;;;;;4940156;29;20406;-80
2024/03/20 19:19:32;;;;;;;8.67;5.37;;;;;;;;;;4942095;29;20415;-79
2024/03/20 19:21:58;;;;;;;11.77;5.33;;;;;;;;;;4940109;29;20429;-81
2024/03/20 19:24:27;;;;;;;20.43;6.77;;;;;;;;;;4932415;29;20451;-80
2024/03/20 19:26:53;;;;;;;10.67;5.93;;;;;;;;;;4928288;29;20431;-79
2024/03/20 19:29:19;;;;;;;12.23;7.37;;;;;;;;;;4934558;29;20489;-79
2024/03/20 19:31:45;;;;;;;13.90;6.20;;;;;;;;;;4937703;29;21024;-78
2024/03/20 19:34:14;;;;;;;7.30;4.50;;;;;;;;;;4928202;29;20432;-79
2024/03/20 19:36:40;;;;;;;26.93;6.10;;;;;;;;;;4927733;29;20438;-79
2024/03/20 19:39:13;;;;;;;11.60;6.17;;;;;;;;;;4932924;29;20422;-77
2024/03/20 19:41:39;;;;;;;13.20;5.53;;;;;;;;;;4936979;29;20851;-78
2024/03/20 19:44:05;;;;;;;18.33;6.90;;;;;;;;;;4936980;29;20916;-76
2024/03/20 19:46:31;;;;;;;14.93;6.27;;;;;;;;;;4936932;29;20884;-77
2024/03/20 19:48:56;;;;;;;15.57;5.37;;;;;;;;;;4933902;29;20525;-79
2024/03/20 19:51:22;;;;;;;10.53;5.40;;;;;;;;;;4936847;29;20465;-77
2024/03/20 19:53:49;;;;;;;15.40;5.97;;;;;;;;;;4936785;29;20428;-78
2024/03/20 19:56:14;;;;;;;17.00;5.60;;;;;;;;;;4930140;29;20433;-77
2024/03/20 19:58:41;;;;;;;13.77;5.60;;;;;;;;;;4936409;29;20816;-78
2024/03/20 20:01:07;;;;;;;11.10;5.87;;;;;;;;;;4931137;29;20425;-78
2024/03/20 20:03:33;;;;;;;10.90;4.93;;;;;;;;;;4932572;29;20421;-78
2024/03/20 20:05:59;;;;;;;11.70;5.70;;;;;;;;;;4935691;29;20581;-77
2024/03/20 20:08:25;;;;;;;11.47;4.60;;;;;;;;;;4935756;29;20421;-79
2024/03/20 20:11:07;;;;;;;15.13;6.00;;;;;;;;;;4936644;29;20457;-79
2024/03/20 20:13:33;;;;;;;13.00;5.20;;;;;;;;;;4934481;29;20421;-77
2024/03/20 20:16:00;;;;;;;13.60;5.10;;;;;;;;;;4936618;29;20457;-77
2024/03/20 20:18:26;;;;;;;6.73;4.70;;;;;;;;;;4936855;29;20513;-75
2024/03/20 20:20:52;;;;;;;6.97;4.50;;;;;;;;;;4935642;29;20417;-76
2024/03/20 20:23:18;;;;;;;11.90;5.53;;;;;;;;;;4934555;29;20417;-76
2024/03/20 20:25:45;;;;;;;12.57;5.20;;;;;;;;;;4923749;29;20468;-75
2024/03/20 20:28:11;;;;;;;9.73;5.10;;;;;;;;;;4934061;29;20425;-76
2024/03/20 20:30:37;;;;;;;11.13;5.47;;;;;;;;;;4936114;29;20759;-79
2024/03/20 20:33:04;;;;;;;10.57;5.07;;;;;;;;;;4936819;29;20436;-77
2024/03/20 20:35:30;;;;;;;12.40;5.37;;;;;;;;;;4933418;29;20441;-78
2024/03/20 20:38:01;;;;;;;8.83;5.07;;;;;;;;;;4934478;29;20496;-79